עמוד ראשי
METAR-TAF:

METAR-TAF

שדות תעופה :

La Gomera, ספרד

קו רוחב: 28-01-47N, קו אורך: 017-12-53W, גובה: 218מטר

תצפית מזג אוויר נוכחית

הדו"ח נערך לפני 16דקות, בשעה 10:00 UTC
רוח 3קשר עם כיוונים משתנים
טמפרטורת 22 צלסיוס
לחות 65%
לחץ 1021 hPa
ראות 10 קילומטר או יותר
מעט עננים בגובה 2500רגל

METAR: GCGM 191000Z VRB03KT 9999 FEW025 22/15 Q1021 RMK R09/21004KT 130V260 ARP/25005KT 150V300

זמן: 11:16 (10:16 UTC)

תחזית

הדו"ח נערך לפני 2 שעות ו 16דקות, בשעה 08:00 UTC
תחזית בתוקף מ 19 ב 09 UTC עד 20 ב 09 UTC
רוח 7קשר עם כיוונים משתנים
ראות 10 קילומטר או יותר
מעט עננים בגובה 2500רגל
הסתברות 30% :
זמנית מ -
19 ב 09 UTC עד 19 ב 19 UTC
רוח 15קשר עם כיוונים משתנים עם משבים עד 25קשר
זמנית מ -
19 ב 09 UTC עד 19 ב 19 UTC
רוח 10קשר מכיוון צפון

TAF: GCGM 190800Z 1909/2009 VRB07KT 9999 FEW025 TX25/1914Z TN17/2006Z PROB30 TEMPO 1909/1919 VRB15G25KT TEMPO 1909/1919 35010KT

תצפיות ותחזיות מזג אוויר לגבי יותר מ- 4,000 שדות תעופה ברחבי העולם. דוחות METAR ו- TAF.

התחנות הזמינות מסומנות בנקודות צהובות ואדומות על גבי המפה.

העבר את העכבר לנקודה הצבעונית על מנת לראות את שם התחנה.

לאחר מכן, לחץ כדי לראות את תוכן ואת תחזיות מזג האוויר.

כדי לשנות את המפה: לחץ על הכפתורים הירוקים עם הפלוס השחור כדי להתקרב; על הכפתור הירוק עם המקף כדי להתרחק; או בחיצים הירוקים למפות סמוכות.


METAR-TAF: